createdAt,value
2022-08-06T00:00:06.342Z,12.75
2022-08-06T00:02:31.555Z,12.25
2022-08-06T00:05:00.751Z,14.40
2022-08-06T00:07:28.928Z,16.52
2022-08-06T00:10:03.863Z,13.13
2022-08-06T00:12:35.391Z,13.38
2022-08-06T00:15:13.443Z,11.02
2022-08-06T00:17:44.615Z,15.05
2022-08-06T00:20:25.418Z,13.70
2022-08-06T00:23:00.950Z,17.23
2022-08-06T00:25:35.528Z,15.35
2022-08-06T00:28:11.873Z,14.77
2022-08-06T00:30:38.778Z,15.45
2022-08-06T00:33:05.949Z,11.68
2022-08-06T00:35:33.348Z,19.35
2022-08-06T00:38:01.926Z,15.98
2022-08-06T00:40:30.943Z,13.63
2022-08-06T00:43:00.858Z,15.77
2022-08-06T00:45:31.631Z,12.63
2022-08-06T00:48:02.062Z,13.27
2022-08-06T00:50:29.727Z,13.40
2022-08-06T00:53:02.663Z,11.57
2022-08-06T00:55:32.231Z,14.18
2022-08-06T00:58:05.516Z,13.63
2022-08-06T01:00:37.066Z,12.00
2022-08-06T01:03:18.838Z,8.88
2022-08-06T01:06:30.045Z,6.97
2022-08-06T01:08:42.957Z,5.07
2022-08-06T01:11:12.708Z,5.38
2022-08-06T01:14:02.292Z,5.45
2022-08-06T01:16:55.160Z,4.68
2022-08-06T01:21:45.416Z,8.85
2022-08-06T01:22:58.687Z,9.43
2022-08-06T01:25:47.391Z,12.23
2022-08-06T01:28:38.473Z,7.35
2022-08-06T01:31:15.547Z,9.73
2022-08-06T01:33:47.993Z,11.60
2022-08-06T01:36:56.901Z,12.95
2022-08-06T01:39:53.665Z,14.57
2022-08-06T01:42:16.680Z,6.95
2022-08-06T01:45:11.865Z,8.18
2022-08-06T01:47:52.249Z,8.13
2022-08-06T01:50:30.196Z,11.85
2022-08-06T01:53:01.374Z,7.15
2022-08-06T01:55:58.810Z,17.05
2022-08-06T01:58:31.346Z,17.85
2022-08-06T02:01:04.287Z,10.50
2022-08-06T02:03:50.347Z,13.93
2022-08-06T02:06:33.805Z,12.13
2022-08-06T02:09:21.713Z,10.73
2022-08-06T02:12:07.086Z,11.95
2022-08-06T02:14:43.156Z,10.25
2022-08-06T02:18:04.569Z,10.73
2022-08-06T02:20:37.228Z,12.73
2022-08-06T02:23:09.395Z,10.20
2022-08-06T02:25:41.894Z,5.55
2022-08-06T02:28:21.348Z,9.77
2022-08-06T02:30:56.385Z,8.68
2022-08-06T02:33:32.186Z,8.65
2022-08-06T02:36:26.767Z,12.55
2022-08-06T02:39:04.140Z,11.50
2022-08-06T02:41:55.492Z,11.65
2022-08-06T02:45:02.306Z,9.63
2022-08-06T02:47:55.784Z,9.30
2022-08-06T02:50:40.284Z,11.70
2022-08-06T02:53:24.119Z,11.52
2022-08-06T02:55:58.996Z,9.80
2022-08-06T02:58:39.517Z,6.78
2022-08-06T03:01:39.445Z,6.90
2022-08-06T03:04:12.352Z,6.60
2022-08-06T03:06:44.297Z,13.60
2022-08-06T03:09:15.131Z,4.25
2022-08-06T03:11:47.313Z,2.97
2022-08-06T03:15:04.068Z,6.00
2022-08-06T03:17:08.669Z,7.40
2022-08-06T03:19:54.454Z,4.70
2022-08-06T03:22:36.043Z,3.97
2022-08-06T03:25:13.788Z,3.03
2022-08-06T03:27:45.142Z,4.75
2022-08-06T03:30:32.265Z,6.03
2022-08-06T03:33:41.951Z,5.47
2022-08-06T03:36:02.910Z,6.50
2022-08-06T03:38:39.453Z,5.10
2022-08-06T03:41:08.219Z,5.57
2022-08-06T03:43:56.702Z,1.70
2022-08-06T03:46:49.627Z,3.80
2022-08-06T03:49:40.958Z,4.25
2022-08-06T03:52:14.684Z,5.88
2022-08-06T03:54:46.348Z,3.60
2022-08-06T03:57:18.788Z,6.68
2022-08-06T03:59:58.458Z,4.53
2022-08-06T04:02:46.137Z,6.95
2022-08-06T04:05:23.933Z,4.45
2022-08-06T04:08:07.226Z,5.70
2022-08-06T04:10:39.897Z,1.60
2022-08-06T04:14:02.913Z,3.17
2022-08-06T04:16:13.712Z,3.70
2022-08-06T04:19:04.192Z,7.03
2022-08-06T04:23:04.513Z,1.95
2022-08-06T04:24:18.295Z,4.32
2022-08-06T04:26:50.083Z,2.55
2022-08-06T04:29:19.691Z,3.15
2022-08-06T04:32:13.116Z,2.83
2022-08-06T04:36:03.687Z,4.05
2022-08-06T04:37:30.666Z,4.05
2022-08-06T04:40:13.341Z,5.45
2022-08-06T04:42:43.116Z,2.47
2022-08-06T04:46:18.104Z,6.78
2022-08-06T04:47:59.955Z,4.25
2022-08-06T04:50:27.739Z,4.63
2022-08-06T04:53:05.200Z,2.53
2022-08-06T04:55:34.817Z,4.75
2022-08-06T04:58:12.083Z,1.73
2022-08-06T05:01:03.118Z,1.75
2022-08-06T20:56:24.976Z,5.93
2022-08-06T20:58:52.176Z,12.50
2022-08-06T21:06:40.452Z,9.55
2022-08-06T21:09:09.008Z,7.63
2022-08-06T21:11:37.498Z,4.93
2022-08-06T21:14:30.844Z,5.18
2022-08-06T21:16:58.842Z,3.80
2022-08-06T21:19:41.414Z,8.95
2022-08-06T21:22:15.293Z,6.03
2022-08-06T21:24:44.409Z,10.48
2022-08-06T21:27:11.957Z,7.63
2022-08-06T21:30:07.802Z,7.95
2022-08-06T21:32:32.730Z,4.15
2022-08-06T21:35:00.163Z,8.05
2022-08-06T21:37:29.308Z,9.05
2022-08-06T21:40:12.154Z,7.53
2022-08-06T21:42:39.461Z,12.18
2022-08-06T21:45:10.352Z,5.75
2022-08-06T21:47:47.240Z,8.77
2022-08-06T21:50:19.645Z,7.82
2022-08-06T21:52:55.197Z,10.07
2022-08-06T21:56:38.038Z,6.95
2022-08-06T21:58:09.975Z,9.48
2022-08-06T22:00:44.536Z,4.80
2022-08-06T22:04:39.563Z,7.22
2022-08-06T22:06:20.842Z,6.38
2022-08-06T22:08:58.024Z,5.00
2022-08-06T22:12:38.066Z,8.70
2022-08-06T22:14:16.813Z,3.85
2022-08-06T22:16:54.586Z,8.48
2022-08-06T22:19:33.404Z,6.95
2022-08-06T22:22:07.738Z,6.53
2022-08-06T22:24:36.292Z,4.45
2022-08-06T22:27:06.194Z,4.40
2022-08-06T22:29:53.394Z,4.60
2022-08-06T22:32:20.865Z,8.93
2022-08-06T22:34:51.704Z,3.80
2022-08-06T22:37:19.182Z,5.78
2022-08-06T22:40:07.644Z,6.28
2022-08-06T22:42:59.236Z,5.68
2022-08-06T22:45:59.773Z,5.63
2022-08-06T22:48:13.572Z,4.90
2022-08-06T22:50:41.653Z,6.93
2022-08-06T22:54:30.095Z,9.68
2022-08-06T22:56:11.236Z,6.20
2022-08-06T22:59:05.808Z,9.10
2022-08-06T23:02:03.471Z,3.53
2022-08-06T23:04:15.097Z,3.92
2022-08-06T23:06:46.451Z,4.50
2022-08-06T23:09:15.883Z,5.07
2022-08-06T23:11:59.096Z,5.90
2022-08-06T23:14:32.151Z,6.18
2022-08-06T23:17:01.163Z,5.63
2022-08-06T23:19:34.691Z,4.03
2022-08-06T23:22:05.480Z,5.78
2022-08-06T23:24:36.829Z,4.80
2022-08-06T23:27:06.789Z,9.48
2022-08-06T23:30:09.257Z,3.80
2022-08-06T23:32:23.533Z,7.03
2022-08-06T23:34:58.055Z,5.93
2022-08-06T23:37:26.558Z,4.10
2022-08-06T23:40:16.171Z,7.32
2022-08-06T23:42:45.662Z,4.15
2022-08-06T23:45:17.634Z,2.50
2022-08-06T23:47:53.954Z,7.22
2022-08-06T23:50:26.061Z,6.47
2022-08-06T23:53:06.575Z,5.85
2022-08-06T23:55:59.159Z,4.90
2022-08-06T23:58:29.313Z,2.47
